createdAt,value
2018-02-09T00:00:42.451Z,0.00
2018-02-09T00:03:08.688Z,0.00
2018-02-09T00:05:35.237Z,0.00
2018-02-09T00:08:01.386Z,0.00
2018-02-09T00:10:28.274Z,0.00
2018-02-09T00:12:54.463Z,0.00
2018-02-09T00:15:21.770Z,-0.10
2018-02-09T00:17:48.002Z,0.00
2018-02-09T00:20:14.581Z,-0.10
2018-02-09T00:22:52.206Z,-0.20
2018-02-09T00:25:18.360Z,-0.10
2018-02-09T00:27:44.890Z,-0.10
2018-02-09T00:30:11.054Z,0.00
2018-02-09T00:32:37.966Z,-0.10
2018-02-09T00:35:04.143Z,-0.10
2018-02-09T00:37:31.121Z,-0.20
2018-02-09T00:39:57.256Z,-0.10
2018-02-09T00:42:24.201Z,-0.10
2018-02-09T00:44:50.356Z,0.00
2018-02-09T00:47:16.512Z,-0.20
2018-02-09T00:49:43.438Z,-0.20
2018-02-09T00:52:09.639Z,-0.10
2018-02-09T00:54:35.824Z,-0.10
2018-02-09T00:57:02.715Z,-0.10
2018-02-09T00:59:29.271Z,-0.10
2018-02-09T01:01:55.470Z,-0.10
2018-02-09T01:04:22.416Z,-0.10
2018-02-09T01:06:48.954Z,0.00
2018-02-09T01:09:15.208Z,0.00
2018-02-09T01:11:41.432Z,-0.10
2018-02-09T01:14:07.651Z,-0.10
2018-02-09T01:16:34.177Z,0.00
2018-02-09T01:19:00.706Z,0.10
2018-02-09T01:21:26.902Z,0.00
2018-02-09T01:23:53.769Z,0.10
2018-02-09T01:26:19.995Z,0.10
2018-02-09T01:28:46.197Z,0.10
2018-02-09T01:31:13.106Z,0.10
2018-02-09T01:33:39.270Z,0.00
2018-02-09T01:36:06.210Z,0.00
2018-02-09T01:38:33.136Z,-0.20
2018-02-09T01:40:59.318Z,-0.40
2018-02-09T01:43:25.499Z,-0.50
2018-02-09T01:45:51.715Z,-0.50
2018-02-09T01:48:17.881Z,-0.50
2018-02-09T01:50:44.406Z,-0.60
2018-02-09T01:53:11.328Z,-0.60
2018-02-09T01:55:37.482Z,-0.60
2018-02-09T01:58:04.430Z,-0.60
2018-02-09T02:00:31.380Z,-0.60
2018-02-09T02:02:58.360Z,-0.60
2018-02-09T02:05:24.539Z,-0.60
2018-02-09T02:07:51.519Z,-0.60
2018-02-09T02:10:17.728Z,-0.60
2018-02-09T02:12:44.656Z,-0.60
2018-02-09T02:15:11.193Z,-0.50
2018-02-09T02:17:37.363Z,-0.40
2018-02-09T02:20:03.529Z,-0.30
2018-02-09T02:22:29.677Z,-0.10
2018-02-09T02:24:55.846Z,0.00
2018-02-09T02:27:21.996Z,0.10
2018-02-09T02:29:48.543Z,0.10
2018-02-09T02:32:14.699Z,0.10
2018-02-09T02:34:41.641Z,0.20
2018-02-09T02:37:08.535Z,0.30
2018-02-09T02:39:34.707Z,0.30
2018-02-09T02:42:00.934Z,0.30
2018-02-09T02:44:27.058Z,0.20
2018-02-09T02:46:53.297Z,0.20
2018-02-09T02:49:20.238Z,0.10
2018-02-09T02:51:46.672Z,0.20
2018-02-09T02:54:28.254Z,0.20
2018-02-09T02:56:54.614Z,0.30
2018-02-09T02:59:20.765Z,0.20
2018-02-09T03:01:46.972Z,0.10
2018-02-09T03:04:13.846Z,0.20
2018-02-09T03:06:40.041Z,0.20
2018-02-09T03:09:07.004Z,0.10
2018-02-09T03:11:33.202Z,0.10
2018-02-09T03:14:00.135Z,0.10
2018-02-09T03:16:26.337Z,0.20
2018-02-09T03:18:52.523Z,0.10
2018-02-09T03:21:19.432Z,0.00
2018-02-09T03:23:45.610Z,0.10
2018-02-09T03:26:11.789Z,0.10
2018-02-09T03:28:37.979Z,0.20
2018-02-09T03:31:04.146Z,0.30
2018-02-09T03:33:30.312Z,0.30
2018-02-09T03:35:56.498Z,0.20
2018-02-09T03:38:22.631Z,0.30
2018-02-09T03:40:48.801Z,0.40
2018-02-09T03:43:14.961Z,0.40
2018-02-09T03:45:41.135Z,0.20
2018-02-09T03:48:08.059Z,0.20
2018-02-09T03:50:34.260Z,0.20
2018-02-09T03:53:00.441Z,0.20
2018-02-09T03:55:27.369Z,0.20
2018-02-09T03:57:54.330Z,0.20
2018-02-09T04:00:21.262Z,0.30
2018-02-09T04:02:47.449Z,0.40
2018-02-09T04:05:13.661Z,0.40
2018-02-09T04:07:39.885Z,0.30
2018-02-09T04:10:06.047Z,0.30
2018-02-09T04:12:32.221Z,0.40
2018-02-09T04:14:58.744Z,0.50
2018-02-09T04:17:25.667Z,0.50
2018-02-09T04:19:51.832Z,0.40
2018-02-09T04:22:18.759Z,0.30
2018-02-09T04:24:44.932Z,0.30
2018-02-09T04:27:11.105Z,0.40
2018-02-09T04:29:37.318Z,0.40
2018-02-09T04:32:03.548Z,0.30
2018-02-09T04:34:30.121Z,0.30
2018-02-09T04:36:57.018Z,0.40
2018-02-09T04:39:23.199Z,0.50
2018-02-09T04:41:50.111Z,0.60
2018-02-09T04:44:16.262Z,0.60
2018-02-09T04:46:42.794Z,0.60
2018-02-09T04:49:09.737Z,0.70
2018-02-09T04:51:35.914Z,0.50
2018-02-09T04:54:02.055Z,0.50
2018-02-09T04:56:28.268Z,0.40
2018-02-09T04:58:54.433Z,0.40
2018-02-09T05:01:20.587Z,0.40
2018-02-09T05:03:47.514Z,0.10
2018-02-09T05:06:13.684Z,0.10
2018-02-09T05:08:39.814Z,0.10
2018-02-09T05:11:06.032Z,0.00
2018-02-09T05:13:32.165Z,0.00
2018-02-09T05:15:58.383Z,0.00
2018-02-09T05:18:24.608Z,0.00
2018-02-09T05:20:51.242Z,0.10
2018-02-09T05:23:18.149Z,0.20
2018-02-09T05:25:44.441Z,0.20
2018-02-09T05:28:11.081Z,0.20
2018-02-09T05:30:37.300Z,0.10
2018-02-09T05:33:03.498Z,0.00
2018-02-09T05:35:30.607Z,0.00
2018-02-09T05:37:56.786Z,-0.10
2018-02-09T05:40:23.664Z,0.10
2018-02-09T05:42:50.073Z,0.10
2018-02-09T05:45:17.407Z,0.00
2018-02-09T05:47:44.425Z,-0.10
2018-02-09T05:50:10.573Z,-0.10
2018-02-09T05:52:36.788Z,-0.10
2018-02-09T05:55:02.951Z,0.00
2018-02-09T05:57:29.873Z,0.00
2018-02-09T05:59:56.480Z,0.00
2018-02-09T06:02:22.757Z,0.00
2018-02-09T06:04:49.329Z,0.00
2018-02-09T06:07:15.468Z,0.00
2018-02-09T06:09:41.681Z,0.10
2018-02-09T06:12:08.229Z,0.10
2018-02-09T06:14:34.588Z,0.10
2018-02-09T06:17:00.768Z,0.00
2018-02-09T06:19:26.935Z,0.00
2018-02-09T06:21:53.069Z,0.00
2018-02-09T06:24:19.600Z,0.00
2018-02-09T06:26:45.766Z,0.00
2018-02-09T06:29:12.697Z,0.00
2018-02-09T06:31:38.849Z,-0.10
2018-02-09T06:34:05.793Z,-0.10
2018-02-09T06:36:36.757Z,-0.10
2018-02-09T06:39:02.942Z,-0.10
2018-02-09T06:41:29.101Z,-0.10
2018-02-09T06:43:55.373Z,-0.10
2018-02-09T06:46:21.533Z,-0.10
2018-02-09T06:48:47.754Z,0.00
2018-02-09T06:51:13.941Z,0.10
2018-02-09T06:53:40.115Z,0.20
2018-02-09T06:56:06.298Z,0.20
2018-02-09T06:58:32.470Z,0.20
2018-02-09T07:00:58.650Z,0.20
2018-02-09T07:03:24.860Z,0.30
2018-02-09T07:05:51.048Z,0.20
2018-02-09T07:08:18.720Z,0.20
2018-02-09T07:10:44.853Z,0.10
2018-02-09T07:13:11.777Z,0.10
2018-02-09T07:15:37.934Z,0.20
2018-02-09T07:18:04.907Z,0.20
2018-02-09T07:20:31.086Z,0.30
2018-02-09T07:22:57.327Z,0.20
2018-02-09T07:25:23.470Z,0.00
2018-02-09T07:27:50.806Z,0.10
2018-02-09T07:30:17.027Z,0.00
2018-02-09T07:32:43.215Z,0.20
2018-02-09T07:35:09.413Z,0.30
2018-02-09T07:37:35.700Z,0.40
2018-02-09T07:40:02.720Z,0.40
2018-02-09T07:42:28.939Z,0.40
2018-02-09T07:44:55.204Z,0.40
2018-02-09T07:47:21.415Z,0.40
2018-02-09T07:49:47.625Z,0.40
2018-02-09T07:52:13.796Z,0.40
2018-02-09T07:54:39.991Z,0.50
2018-02-09T07:57:06.168Z,0.50
2018-02-09T07:59:32.347Z,0.50
2018-02-09T08:01:58.582Z,0.60
2018-02-09T08:04:24.838Z,0.60
2018-02-09T08:06:51.052Z,0.60
2018-02-09T08:09:17.191Z,0.60
2018-02-09T08:11:43.455Z,0.70
2018-02-09T08:14:10.364Z,0.70
2018-02-09T08:16:36.563Z,0.70
2018-02-09T08:19:02.726Z,0.70
2018-02-09T08:21:28.943Z,0.80
2018-02-09T08:23:55.150Z,0.80
2018-02-09T08:26:21.388Z,0.80
2018-02-09T08:28:47.578Z,0.70
2018-02-09T08:31:13.773Z,0.70
2018-02-09T08:33:40.721Z,0.70
2018-02-09T08:36:06.951Z,0.80
2018-02-09T08:38:33.124Z,0.70
2018-02-09T08:40:59.272Z,0.50
2018-02-09T08:43:25.520Z,0.30
2018-02-09T08:45:51.693Z,0.30
2018-02-09T08:48:17.939Z,0.30
2018-02-09T08:50:44.136Z,0.50
2018-02-09T08:53:11.089Z,0.50
2018-02-09T08:55:38.055Z,0.50
2018-02-09T08:58:04.279Z,0.60
2018-02-09T09:00:30.447Z,0.60
2018-02-09T09:02:57.621Z,0.60
2018-02-09T09:05:23.811Z,0.70
2018-02-09T09:07:50.007Z,0.60
2018-02-09T09:10:16.331Z,0.70
2018-02-09T09:12:43.226Z,0.50
2018-02-09T09:15:09.821Z,0.70
2018-02-09T09:17:36.734Z,0.70
2018-02-09T09:20:02.954Z,0.70
2018-02-09T09:22:29.130Z,0.80
2018-02-09T09:24:55.305Z,0.90
2018-02-09T09:27:21.478Z,1.00
2018-02-09T09:29:48.361Z,1.00
2018-02-09T09:32:14.556Z,1.00
2018-02-09T09:34:40.730Z,1.10
2018-02-09T09:37:06.910Z,1.10
2018-02-09T09:39:33.218Z,4.60
2018-02-09T09:42:00.190Z,1.20
2018-02-09T09:44:26.360Z,-1.30
2018-02-09T09:46:52.560Z,1.30
2018-02-09T09:49:18.726Z,1.20
2018-02-09T09:51:44.908Z,1.10
2018-02-09T09:54:11.066Z,1.10
2018-02-09T09:56:38.117Z,1.10
2018-02-09T09:59:04.291Z,1.10
2018-02-09T10:01:30.842Z,1.20
2018-02-09T10:03:57.011Z,1.20
2018-02-09T10:06:23.214Z,1.20
2018-02-09T10:08:49.442Z,1.20
2018-02-09T10:11:15.626Z,1.20
2018-02-09T10:13:42.542Z,1.60
2018-02-09T10:16:08.846Z,2.10
2018-02-09T10:18:34.975Z,3.10
2018-02-09T10:21:01.160Z,3.20
2018-02-09T10:23:27.411Z,2.80
2018-02-09T10:25:53.556Z,2.50
2018-02-09T10:28:19.728Z,2.60
2018-02-09T10:30:45.909Z,2.20
2018-02-09T10:33:12.457Z,2.00
2018-02-09T10:35:38.623Z,1.90
2018-02-09T10:38:04.801Z,1.80
2018-02-09T10:40:31.029Z,1.80
2018-02-09T10:42:57.226Z,1.80
2018-02-09T10:45:24.176Z,1.90
2018-02-09T10:47:51.124Z,1.80
2018-02-09T10:50:17.258Z,1.90
2018-02-09T10:52:44.225Z,2.00
2018-02-09T10:55:10.384Z,2.00
2018-02-09T10:57:36.570Z,2.00
2018-02-09T11:00:02.841Z,1.80
2018-02-09T11:02:29.754Z,1.90
2018-02-09T11:04:55.948Z,1.90
2018-02-09T11:07:22.912Z,1.80
2018-02-09T11:09:50.265Z,1.70
2018-02-09T11:12:26.426Z,1.70
2018-02-09T11:14:53.345Z,1.70
2018-02-09T11:17:20.285Z,1.80
2018-02-09T11:19:46.474Z,1.80
2018-02-09T11:22:12.707Z,1.80
2018-02-09T11:24:38.922Z,1.80
2018-02-09T11:27:05.153Z,1.80
2018-02-09T11:29:32.030Z,1.80
2018-02-09T11:31:58.257Z,1.90
2018-02-09T11:34:24.439Z,1.90
2018-02-09T11:36:50.648Z,1.90
2018-02-09T11:39:17.574Z,2.00
2018-02-09T11:41:43.729Z,2.00
2018-02-09T11:44:10.723Z,2.10
2018-02-09T11:46:36.950Z,2.10
2018-02-09T11:49:03.138Z,2.00
2018-02-09T11:51:30.082Z,2.00
2018-02-09T11:53:56.981Z,1.90
2018-02-09T11:56:23.220Z,1.90
2018-02-09T11:58:49.397Z,1.80
2018-02-09T12:01:15.591Z,1.80
2018-02-09T12:03:42.578Z,1.90
2018-02-09T12:06:08.759Z,1.70
2018-02-09T12:08:34.946Z,1.80
2018-02-09T12:11:01.291Z,1.90
2018-02-09T12:13:27.485Z,2.00
2018-02-09T12:15:53.693Z,2.00
2018-02-09T12:18:20.672Z,2.10
2018-02-09T12:20:46.940Z,2.10
2018-02-09T12:23:13.170Z,2.60
2018-02-09T12:25:39.356Z,2.60
2018-02-09T12:28:05.582Z,2.40
2018-02-09T12:30:31.795Z,2.30
2018-02-09T12:32:58.734Z,2.20
2018-02-09T12:35:25.633Z,2.20
2018-02-09T12:37:51.802Z,2.20
2018-02-09T12:40:18.703Z,2.10
2018-02-09T12:42:44.890Z,2.10
2018-02-09T12:45:11.114Z,2.10
2018-02-09T12:47:38.047Z,2.10
2018-02-09T12:50:04.983Z,2.00
2018-02-09T12:52:31.888Z,2.10
2018-02-09T12:54:58.052Z,2.10
2018-02-09T12:57:24.238Z,2.10
2018-02-09T12:59:50.454Z,2.20
2018-02-09T13:02:16.994Z,2.20
2018-02-09T13:04:43.182Z,2.00
2018-02-09T13:07:10.114Z,2.00
2018-02-09T13:09:36.332Z,2.00
2018-02-09T13:12:02.676Z,2.00
2018-02-09T13:14:40.981Z,2.00
2018-02-09T13:17:07.946Z,2.00
2018-02-09T13:19:34.122Z,2.10
2018-02-09T13:22:00.379Z,2.10
2018-02-09T13:24:26.588Z,2.10
2018-02-09T13:26:52.795Z,2.00
2018-02-09T13:29:19.059Z,2.10
2018-02-09T13:31:45.262Z,2.20
2018-02-09T13:34:11.467Z,2.00
2018-02-09T13:39:36.385Z,2.00
2018-02-09T13:42:02.585Z,2.00
2018-02-09T13:44:28.797Z,2.10
2018-02-09T13:46:54.960Z,2.00
2018-02-09T13:49:21.899Z,2.10
2018-02-09T13:51:48.116Z,2.10
2018-02-09T13:54:14.335Z,2.00
2018-02-09T13:56:40.610Z,2.10
2018-02-09T13:59:06.804Z,2.10
2018-02-09T14:01:33.051Z,2.10
2018-02-09T14:03:59.990Z,2.00
2018-02-09T14:06:26.933Z,2.00
2018-02-09T14:08:53.129Z,2.10
2018-02-09T14:11:20.083Z,2.00
2018-02-09T14:13:46.233Z,2.00
2018-02-09T14:16:13.261Z,2.20
2018-02-09T14:18:39.440Z,2.20
2018-02-09T14:21:05.718Z,2.20
2018-02-09T14:23:31.915Z,2.20
2018-02-09T14:25:58.094Z,2.10
2018-02-09T14:28:24.250Z,2.10
2018-02-09T14:30:50.429Z,2.10
2018-02-09T14:33:16.628Z,2.10
2018-02-09T14:35:42.842Z,2.10
2018-02-09T14:38:09.876Z,2.10
2018-02-09T14:40:36.849Z,2.10
2018-02-09T14:43:03.068Z,2.10
2018-02-09T14:45:29.265Z,2.10
2018-02-09T14:47:55.453Z,2.30
2018-02-09T14:50:21.654Z,2.20
2018-02-09T14:52:47.832Z,2.10
2018-02-09T14:55:14.052Z,2.10
2018-02-09T14:57:40.339Z,2.20
2018-02-09T15:00:06.554Z,2.10
2018-02-09T15:02:32.791Z,2.20
2018-02-09T15:04:59.728Z,2.10
2018-02-09T15:07:27.279Z,2.30
2018-02-09T15:09:54.220Z,2.20
2018-02-09T15:12:21.172Z,2.20
2018-02-09T15:14:48.145Z,2.10
2018-02-09T15:17:14.336Z,2.20
2018-02-09T15:19:40.474Z,2.20
2018-02-09T15:22:07.386Z,2.20
2018-02-09T15:24:33.635Z,2.20
2018-02-09T15:27:00.594Z,2.10
2018-02-09T15:29:27.554Z,2.10
2018-02-09T15:31:53.757Z,2.10
2018-02-09T15:34:20.791Z,2.10
2018-02-09T15:36:46.991Z,2.00
2018-02-09T15:39:13.305Z,2.00
2018-02-09T15:41:39.540Z,2.00
2018-02-09T15:44:05.712Z,2.00
2018-02-09T15:46:31.902Z,1.90
2018-02-09T15:48:58.072Z,1.90
2018-02-09T15:51:24.271Z,2.00
2018-02-09T15:53:50.449Z,2.10
2018-02-09T15:56:17.371Z,2.10
2018-02-09T15:58:43.553Z,2.10
2018-02-09T16:01:09.745Z,2.20
2018-02-09T16:03:36.652Z,2.20
2018-02-09T16:06:02.887Z,2.20
2018-02-09T16:08:29.159Z,2.10
2018-02-09T16:10:56.085Z,2.10
2018-02-09T16:13:22.236Z,2.20
2018-02-09T16:15:48.437Z,2.20
2018-02-09T16:18:14.646Z,2.20
2018-02-09T16:20:40.877Z,2.20
2018-02-09T16:23:07.093Z,2.20
2018-02-09T16:25:33.290Z,2.00
2018-02-09T16:27:59.490Z,2.20
2018-02-09T16:30:26.387Z,2.20
2018-02-09T16:32:52.951Z,2.20
2018-02-09T16:35:19.492Z,2.20
2018-02-09T16:37:45.701Z,2.20
2018-02-09T16:40:11.898Z,4.60
2018-02-09T16:42:38.090Z,2.10
2018-02-09T16:45:04.299Z,2.10
2018-02-09T16:47:30.479Z,2.10
2018-02-09T16:49:56.651Z,2.10
2018-02-09T16:52:23.241Z,2.10
2018-02-09T16:54:49.473Z,2.10
2018-02-09T16:57:16.408Z,2.10
2018-02-09T16:59:42.636Z,2.10
2018-02-09T17:02:08.827Z,2.10
2018-02-09T17:04:35.058Z,2.20
2018-02-09T17:07:01.257Z,2.30
2018-02-09T17:09:27.482Z,2.30
2018-02-09T17:11:55.192Z,2.30
2018-02-09T17:14:22.168Z,2.20
2018-02-09T17:16:48.368Z,2.20
2018-02-09T17:19:15.346Z,2.20
2018-02-09T17:21:41.496Z,2.20
2018-02-09T17:24:07.683Z,2.20
2018-02-09T17:26:34.573Z,2.20
2018-02-09T17:29:01.507Z,2.20
2018-02-09T17:31:27.727Z,2.30
2018-02-09T17:33:53.993Z,2.20
2018-02-09T17:36:20.217Z,2.20
2018-02-09T17:38:46.423Z,2.20
2018-02-09T17:41:13.096Z,2.30
2018-02-09T17:43:39.260Z,2.20
2018-02-09T17:46:06.188Z,2.30
2018-02-09T17:48:32.770Z,2.20
2018-02-09T17:50:58.947Z,2.20
2018-02-09T17:53:25.131Z,2.20
2018-02-09T17:55:51.350Z,2.30
2018-02-09T17:58:18.872Z,2.30
2018-02-09T18:00:45.226Z,2.30
2018-02-09T18:03:11.400Z,2.30
2018-02-09T18:05:37.629Z,2.20
2018-02-09T18:08:03.844Z,2.20
2018-02-09T18:10:30.066Z,2.20
2018-02-09T18:12:56.257Z,2.30
2018-02-09T18:15:22.830Z,2.20
2018-02-09T18:17:49.001Z,2.20
2018-02-09T18:20:15.222Z,2.30
2018-02-09T18:22:41.427Z,2.20
2018-02-09T18:25:07.689Z,2.30
2018-02-09T18:27:33.919Z,2.20
2018-02-09T18:30:00.125Z,2.30
2018-02-09T18:32:26.316Z,2.30
2018-02-09T18:34:52.500Z,2.20
2018-02-09T18:37:18.725Z,2.20
2018-02-09T18:39:46.394Z,2.40
2018-02-09T18:42:12.566Z,2.80
2018-02-09T18:44:39.267Z,3.00
2018-02-09T18:47:06.251Z,3.20
2018-02-09T18:49:32.517Z,3.10
2018-02-09T18:51:58.767Z,2.80
2018-02-09T18:54:24.973Z,2.70
2018-02-09T18:56:51.213Z,2.60
2018-02-09T18:59:17.456Z,2.50
2018-02-09T19:11:33.669Z,2.30
2018-02-09T19:13:59.865Z,2.30
2018-02-09T19:16:26.781Z,2.30
2018-02-09T19:18:52.990Z,2.30
2018-02-09T19:21:19.158Z,2.30
2018-02-09T19:23:46.141Z,2.30
2018-02-09T19:26:12.361Z,2.30
2018-02-09T19:28:38.553Z,2.40
2018-02-09T19:31:06.281Z,2.40
2018-02-09T19:33:32.478Z,2.30
2018-02-09T19:35:58.720Z,2.40
2018-02-09T19:38:24.974Z,2.40
2018-02-09T19:40:51.927Z,2.40
2018-02-09T19:43:18.119Z,2.40
2018-02-09T19:45:44.361Z,2.40
2018-02-09T19:48:10.596Z,2.40
2018-02-09T19:50:36.808Z,2.40
2018-02-09T19:53:03.100Z,2.30
2018-02-09T19:55:29.236Z,2.30
2018-02-09T19:57:56.208Z,2.30
2018-02-09T20:00:22.359Z,2.30
2018-02-09T20:02:48.582Z,2.30
2018-02-09T20:05:14.827Z,2.40
2018-02-09T20:10:30.643Z,2.40
2018-02-09T20:12:56.837Z,2.40
2018-02-09T20:15:23.047Z,2.40
2018-02-09T20:17:49.981Z,2.30
2018-02-09T20:20:16.927Z,2.40
2018-02-09T20:22:43.167Z,2.30
2018-02-09T20:25:09.811Z,2.40
2018-02-09T20:27:36.129Z,2.40
2018-02-09T20:30:03.098Z,2.40
2018-02-09T20:32:29.266Z,2.40
2018-02-09T20:34:55.503Z,2.50
2018-02-09T20:37:21.801Z,2.50
2018-02-09T20:39:48.176Z,2.50
2018-02-09T20:42:14.431Z,2.50
2018-02-09T20:44:41.372Z,2.60
2018-02-09T20:47:08.325Z,2.60
2018-02-09T20:49:34.581Z,2.60
2018-02-09T20:52:00.809Z,2.60
2018-02-09T20:54:27.004Z,2.50
2018-02-09T20:56:54.364Z,2.50
2018-02-09T20:59:21.330Z,2.50
2018-02-09T21:01:47.659Z,2.50
2018-02-09T21:04:14.907Z,2.50
2018-02-09T21:06:41.106Z,2.50
2018-02-09T21:09:08.103Z,2.50
2018-02-09T21:11:34.345Z,2.50
2018-02-09T21:14:00.596Z,2.40
2018-02-09T21:16:26.922Z,2.40
2018-02-09T21:18:53.508Z,4.70
2018-02-09T21:21:19.674Z,2.30
2018-02-09T21:23:45.871Z,2.30
2018-02-09T21:26:12.113Z,2.30
2018-02-09T21:28:38.358Z,2.30
2018-02-09T21:31:04.574Z,2.30
2018-02-09T21:33:30.756Z,2.40
2018-02-09T21:35:57.945Z,2.40
2018-02-09T21:38:24.179Z,2.30
2018-02-09T21:40:50.388Z,2.30
2018-02-09T21:43:16.630Z,2.40
2018-02-09T21:45:42.859Z,2.30
2018-02-09T21:48:09.058Z,2.40
2018-02-09T21:50:36.030Z,2.50
2018-02-09T21:53:02.262Z,2.50
2018-02-09T21:55:28.493Z,2.50
2018-02-09T21:57:54.708Z,2.50
2018-02-09T22:00:20.897Z,2.40
2018-02-09T22:02:47.102Z,2.40
2018-02-09T22:05:13.274Z,2.40
2018-02-09T22:07:40.178Z,2.40
2018-02-09T22:10:06.403Z,2.40
2018-02-09T22:12:32.596Z,2.30
2018-02-09T22:14:58.799Z,2.30
2018-02-09T22:17:24.995Z,2.20
2018-02-09T22:19:51.190Z,2.10
2018-02-09T22:22:17.380Z,2.10
2018-02-09T22:24:43.636Z,2.00
2018-02-09T22:27:09.847Z,2.00
2018-02-09T22:29:36.812Z,2.00
2018-02-09T22:32:03.012Z,1.90
2018-02-09T22:34:29.250Z,1.90
2018-02-09T22:36:56.188Z,2.00
2018-02-09T22:39:22.360Z,1.90
2018-02-09T22:41:48.601Z,2.00
2018-02-09T22:44:14.802Z,1.90
2018-02-09T22:46:41.044Z,1.90
2018-02-09T22:49:07.262Z,1.90
2018-02-09T22:51:33.469Z,1.90
2018-02-09T22:56:27.552Z,1.90
2018-02-09T22:58:54.490Z,1.80
2018-02-09T23:01:20.745Z,1.90
2018-02-09T23:03:47.688Z,1.80
2018-02-09T23:06:14.579Z,1.90
2018-02-09T23:08:40.795Z,2.00
2018-02-09T23:11:06.985Z,2.00
2018-02-09T23:13:33.944Z,2.00
2018-02-09T23:16:00.136Z,2.00
2018-02-09T23:18:26.388Z,2.00
2018-02-09T23:20:53.302Z,2.00
2018-02-09T23:23:19.463Z,2.00
2018-02-09T23:25:46.362Z,2.00
2018-02-09T23:28:12.600Z,2.00
2018-02-09T23:30:38.773Z,2.00
2018-02-09T23:33:05.721Z,1.90
2018-02-09T23:35:32.630Z,1.90
2018-02-09T23:37:58.886Z,1.90
2018-02-09T23:40:25.851Z,1.90
2018-02-09T23:42:52.037Z,1.80
2018-02-09T23:45:18.290Z,1.80
2018-02-09T23:47:45.193Z,1.80
2018-02-09T23:50:11.409Z,1.80
2018-02-09T23:52:37.593Z,1.80
2018-02-09T23:55:04.515Z,1.80
2018-02-09T23:57:31.490Z,1.80
2018-02-09T23:59:57.586Z,1.80
